sensor_id;sensor_type;location;lat;lon;timestamp;pressure;altitude;pressure_sealevel;temperature;humidity
69257;BME280;56376;53.356;-1.748;2023-04-04T00:01:17;100857.94;;;3.84;94.11
69257;BME280;56376;53.356;-1.748;2023-04-04T00:03:43;100862.25;;;3.84;93.96
69257;BME280;56376;53.356;-1.748;2023-04-04T00:06:08;100855.28;;;3.80;94.00
69257;BME280;56376;53.356;-1.748;2023-04-04T00:08:34;100851.78;;;3.75;93.82
69257;BME280;56376;53.356;-1.748;2023-04-04T00:10:59;100864.63;;;3.68;93.86
69257;BME280;56376;53.356;-1.748;2023-04-04T00:13:26;100865.41;;;3.61;94.30
69257;BME280;56376;53.356;-1.748;2023-04-04T00:15:52;100854.09;;;3.55;94.92
69257;BME280;56376;53.356;-1.748;2023-04-04T00:18:18;100871.28;;;3.53;95.07
69257;BME280;56376;53.356;-1.748;2023-04-04T00:20:43;100866.94;;;3.50;94.90
69257;BME280;56376;53.356;-1.748;2023-04-04T00:23:09;100866.00;;;3.45;94.75
69257;BME280;56376;53.356;-1.748;2023-04-04T00:25:36;100860.75;;;3.37;94.19
69257;BME280;56376;53.356;-1.748;2023-04-04T00:28:01;100863.25;;;3.31;94.77
69257;BME280;56376;53.356;-1.748;2023-04-04T00:30:30;100870.88;;;3.25;94.63
69257;BME280;56376;53.356;-1.748;2023-04-04T00:32:56;100869.13;;;3.22;94.59
69257;BME280;56376;53.356;-1.748;2023-04-04T00:35:22;100864.75;;;3.17;94.40
69257;BME280;56376;53.356;-1.748;2023-04-04T00:37:47;100863.00;;;3.14;94.28
69257;BME280;56376;53.356;-1.748;2023-04-04T00:40:13;100859.50;;;3.11;93.88
69257;BME280;56376;53.356;-1.748;2023-04-04T00:42:38;100864.66;;;3.11;93.97
69257;BME280;56376;53.356;-1.748;2023-04-04T00:45:05;100868.00;;;3.03;94.03
69257;BME280;56376;53.356;-1.748;2023-04-04T00:47:31;100855.88;;;2.99;94.33
69257;BME280;56376;53.356;-1.748;2023-04-04T00:49:57;100863.63;;;2.98;94.34
69257;BME280;56376;53.356;-1.748;2023-04-04T00:52:23;100853.28;;;2.98;94.58
69257;BME280;56376;53.356;-1.748;2023-04-04T00:54:48;100856.72;;;2.98;94.50
69257;BME280;56376;53.356;-1.748;2023-04-04T00:57:14;100847.28;;;2.99;95.45
69257;BME280;56376;53.356;-1.748;2023-04-04T00:59:40;100847.25;;;2.97;94.98
69257;BME280;56376;53.356;-1.748;2023-04-04T01:02:07;100850.66;;;2.95;95.45
69257;BME280;56376;53.356;-1.748;2023-04-04T01:04:32;100845.44;;;2.92;95.37
69257;BME280;56376;53.356;-1.748;2023-04-04T01:06:58;100841.91;;;2.85;95.40
69257;BME280;56376;53.356;-1.748;2023-04-04T01:09:25;100836.66;;;2.80;95.45
69257;BME280;56376;53.356;-1.748;2023-04-04T01:11:52;100829.69;;;2.76;95.36
69257;BME280;56376;53.356;-1.748;2023-04-04T01:14:19;100832.19;;;2.72;94.94
69257;BME280;56376;53.356;-1.748;2023-04-04T01:16:45;100826.13;;;2.68;94.65
69257;BME280;56376;53.356;-1.748;2023-04-04T01:19:19;100818.34;;;2.65;94.72
69257;BME280;56376;53.356;-1.748;2023-04-04T01:21:45;100822.63;;;2.63;94.60
69257;BME280;56376;53.356;-1.748;2023-04-04T01:24:15;100817.41;;;2.60;94.53
69257;BME280;56376;53.356;-1.748;2023-04-04T01:26:40;100816.50;;;2.58;94.97
69257;BME280;56376;53.356;-1.748;2023-04-04T01:29:06;100822.53;;;2.58;94.68
69257;BME280;56376;53.356;-1.748;2023-04-04T01:34:16;100822.28;;;2.43;94.64
69257;BME280;56376;53.356;-1.748;2023-04-04T01:36:56;100831.69;;;2.40;94.48
69257;BME280;56376;53.356;-1.748;2023-04-04T01:39:38;100816.16;;;2.38;95.23
69257;BME280;56376;53.356;-1.748;2023-04-04T01:42:07;100810.09;;;2.36;94.62
69257;BME280;56376;53.356;-1.748;2023-04-04T01:44:33;100816.94;;;2.32;94.38
69257;BME280;56376;53.356;-1.748;2023-04-04T01:46:59;100820.34;;;2.31;94.14
69257;BME280;56376;53.356;-1.748;2023-04-04T01:49:24;100791.09;;;2.29;94.78
69257;BME280;56376;53.356;-1.748;2023-04-04T01:51:51;100800.50;;;2.27;94.51
69257;BME280;56376;53.356;-1.748;2023-04-04T01:54:17;100817.66;;;2.27;94.88
69257;BME280;56376;53.356;-1.748;2023-04-04T01:56:43;100809.88;;;2.24;95.25
69257;BME280;56376;53.356;-1.748;2023-04-04T01:59:09;100811.56;;;2.22;95.23
69257;BME280;56376;53.356;-1.748;2023-04-04T02:01:35;100806.31;;;2.15;95.19
69257;BME280;56376;53.356;-1.748;2023-04-04T02:04:01;100808.84;;;2.12;95.24
69257;BME280;56376;53.356;-1.748;2023-04-04T02:06:27;100802.72;;;2.07;95.23
69257;BME280;56376;53.356;-1.748;2023-04-04T02:08:53;100801.72;;;2.01;94.74
69257;BME280;56376;53.356;-1.748;2023-04-04T02:11:18;100807.69;;;1.98;95.09
69257;BME280;56376;53.356;-1.748;2023-04-04T02:13:47;100804.16;;;1.93;94.56
69257;BME280;56376;53.356;-1.748;2023-04-04T02:16:12;100810.09;;;1.89;94.48
69257;BME280;56376;53.356;-1.748;2023-04-04T02:18:38;100805.75;;;1.85;94.36
69257;BME280;56376;53.356;-1.748;2023-04-04T02:21:03;100804.84;;;1.83;94.42
69257;BME280;56376;53.356;-1.748;2023-04-04T02:23:28;100794.47;;;1.80;94.64
69257;BME280;56376;53.356;-1.748;2023-04-04T02:25:54;100789.28;;;1.77;94.67
69257;BME280;56376;53.356;-1.748;2023-04-04T02:28:19;100788.41;;;1.78;94.70
69257;BME280;56376;53.356;-1.748;2023-04-04T02:30:44;100784.94;;;1.76;95.09
69257;BME280;56376;53.356;-1.748;2023-04-04T02:33:10;100783.22;;;1.75;94.74
69257;BME280;56376;53.356;-1.748;2023-04-04T02:35:36;100782.31;;;1.72;95.17
69257;BME280;56376;53.356;-1.748;2023-04-04T02:38:01;100782.25;;;1.69;95.34
69257;BME280;56376;53.356;-1.748;2023-04-04T02:40:27;100778.78;;;1.67;95.46
69257;BME280;56376;53.356;-1.748;2023-04-04T02:42:52;100774.47;;;1.66;95.08
69257;BME280;56376;53.356;-1.748;2023-04-04T02:45:17;100779.59;;;1.65;94.81
69257;BME280;56376;53.356;-1.748;2023-04-04T02:47:48;100782.09;;;1.62;94.78
69257;BME280;56376;53.356;-1.748;2023-04-04T02:50:14;100779.47;;;1.60;94.58
69257;BME280;56376;53.356;-1.748;2023-04-04T02:52:40;100775.13;;;1.58;94.40
69257;BME280;56376;53.356;-1.748;2023-04-04T02:55:06;100772.50;;;1.55;94.90
69257;BME280;56376;53.356;-1.748;2023-04-04T02:57:32;100774.19;;;1.52;94.80
69257;BME280;56376;53.356;-1.748;2023-04-04T02:59:58;100768.94;;;1.48;94.60
69257;BME280;56376;53.356;-1.748;2023-04-04T03:02:24;100768.88;;;1.45;94.56
69257;BME280;56376;53.356;-1.748;2023-04-04T03:04:50;100767.09;;;1.42;94.18
69257;BME280;56376;53.356;-1.748;2023-04-04T03:07:16;100768.72;;;1.37;93.80
69257;BME280;56376;53.356;-1.748;2023-04-04T03:09:41;100767.78;;;1.34;93.96
69257;BME280;56376;53.356;-1.748;2023-04-04T03:12:09;100761.69;;;1.30;94.30
69257;BME280;56376;53.356;-1.748;2023-04-04T03:14:35;100762.44;;;1.24;93.99
69257;BME280;56376;53.356;-1.748;2023-04-04T03:17:01;100758.13;;;1.23;94.39
69257;BME280;56376;53.356;-1.748;2023-04-04T03:19:28;100757.09;;;1.15;94.44
69257;BME280;56376;53.356;-1.748;2023-04-04T03:21:53;100757.09;;;1.15;94.06
69257;BME280;56376;53.356;-1.748;2023-04-04T03:24:18;100750.16;;;1.11;93.81
69257;BME280;56376;53.356;-1.748;2023-04-04T03:26:44;100763.88;;;1.12;93.72
69257;BME280;56376;53.356;-1.748;2023-04-04T03:29:09;100755.19;;;1.06;94.26
69257;BME280;56376;53.356;-1.748;2023-04-04T03:31:35;100760.31;;;1.05;94.04
69257;BME280;56376;53.356;-1.748;2023-04-04T03:34:00;100764.53;;;1.03;94.59
69257;BME280;56376;53.356;-1.748;2023-04-04T03:36:26;100764.53;;;1.01;95.09
69257;BME280;56376;53.356;-1.748;2023-04-04T03:38:51;100772.19;;;1.00;95.47
69257;BME280;56376;53.356;-1.748;2023-04-04T03:41:17;100773.91;;;0.99;95.66
69257;BME280;56376;53.356;-1.748;2023-04-04T03:43:42;100764.34;;;0.94;95.63
69257;BME280;56376;53.356;-1.748;2023-04-04T03:46:09;100766.03;;;0.92;95.71
69257;BME280;56376;53.356;-1.748;2023-04-04T03:48:34;100772.88;;;0.91;95.10
69257;BME280;56376;53.356;-1.748;2023-04-04T03:51:01;100762.50;;;0.88;94.59
69257;BME280;56376;53.356;-1.748;2023-04-04T03:53:27;100767.63;;;0.88;94.58
69257;BME280;56376;53.356;-1.748;2023-04-04T03:55:55;100770.16;;;0.85;95.23
69257;BME280;56376;53.356;-1.748;2023-04-04T03:58:20;100772.66;;;0.82;95.40
69257;BME280;56376;53.356;-1.748;2023-04-04T04:00:46;100769.16;;;0.78;95.49
69257;BME280;56376;53.356;-1.748;2023-04-04T04:03:12;100766.47;;;0.74;95.23
69257;BME280;56376;53.356;-1.748;2023-04-04T04:05:37;100762.13;;;0.73;95.29
69257;BME280;56376;53.356;-1.748;2023-04-04T04:08:03;100755.22;;;0.69;95.54
69257;BME280;56376;53.356;-1.748;2023-04-04T04:10:29;100759.50;;;0.70;95.90
69257;BME280;56376;53.356;-1.748;2023-04-04T04:12:54;100758.63;;;0.69;95.28
69257;BME280;56376;53.356;-1.748;2023-04-04T04:15:19;100761.06;;;0.63;95.19
69257;BME280;56376;53.356;-1.748;2023-04-04T04:17:45;100762.75;;;0.61;95.09
69257;BME280;56376;53.356;-1.748;2023-04-04T04:20:10;100772.94;;;0.58;95.33
69257;BME280;56376;53.356;-1.748;2023-04-04T04:22:36;100773.78;;;0.57;95.22
69257;BME280;56376;53.356;-1.748;2023-04-04T04:25:02;100771.09;;;0.52;95.54
69257;BME280;56376;53.356;-1.748;2023-04-04T04:27:28;100764.16;;;0.50;94.94
69257;BME280;56376;53.356;-1.748;2023-04-04T04:29:54;100775.25;;;0.47;95.03
69257;BME280;56376;53.356;-1.748;2023-04-04T04:32:20;100772.59;;;0.44;94.90
69257;BME280;56376;53.356;-1.748;2023-04-04T04:34:46;100762.28;;;0.42;94.90
69257;BME280;56376;53.356;-1.748;2023-04-04T04:37:12;100760.50;;;0.40;94.25
69257;BME280;56376;53.356;-1.748;2023-04-04T04:39:37;100762.97;;;0.35;94.44
69257;BME280;56376;53.356;-1.748;2023-04-04T04:42:03;100768.03;;;0.32;95.63
69257;BME280;56376;53.356;-1.748;2023-04-04T04:44:28;100760.25;;;0.29;95.19
69257;BME280;56376;53.356;-1.748;2023-04-04T04:46:54;100749.03;;;0.26;95.37
69257;BME280;56376;53.356;-1.748;2023-04-04T04:49:19;100745.50;;;0.22;95.57
69257;BME280;56376;53.356;-1.748;2023-04-04T04:51:44;100754.84;;;0.20;95.46
69257;BME280;56376;53.356;-1.748;2023-04-04T04:54:10;100755.66;;;0.17;95.47
69257;BME280;56376;53.356;-1.748;2023-04-04T04:56:36;100754.84;;;0.18;95.54
69257;BME280;56376;53.356;-1.748;2023-04-04T04:59:02;100759.13;;;0.18;95.28
69257;BME280;56376;53.356;-1.748;2023-04-04T05:01:27;100756.44;;;0.15;95.49
69257;BME280;56376;53.356;-1.748;2023-04-04T05:03:53;100766.72;;;0.15;95.35
69257;BME280;56376;53.356;-1.748;2023-04-04T05:06:18;100770.97;;;0.13;95.07
69257;BME280;56376;53.356;-1.748;2023-04-04T05:08:43;100755.50;;;0.11;94.92
69257;BME280;56376;53.356;-1.748;2023-04-04T05:11:09;100757.22;;;0.11;95.50
69257;BME280;56376;53.356;-1.748;2023-04-04T05:13:34;100757.09;;;0.06;95.73
69257;BME280;56376;53.356;-1.748;2023-04-04T05:16:00;100759.59;;;0.05;95.69
69257;BME280;56376;53.356;-1.748;2023-04-04T05:18:25;100759.53;;;0.02;94.80
69257;BME280;56376;53.356;-1.748;2023-04-04T05:20:55;100756.06;;;-0.01;95.10
69257;BME280;56376;53.356;-1.748;2023-04-04T05:23:21;100755.97;;;-0.04;95.41
69257;BME280;56376;53.356;-1.748;2023-04-04T05:25:50;100754.25;;;-0.05;95.41
69257;BME280;56376;53.356;-1.748;2023-04-04T05:28:18;100756.72;;;-0.08;95.22
69257;BME280;56376;53.356;-1.748;2023-04-04T05:30:43;100752.34;;;-0.12;94.82
69257;BME280;56376;53.356;-1.748;2023-04-04T05:33:08;100752.28;;;-0.15;94.77
69257;BME280;56376;53.356;-1.748;2023-04-04T05:35:34;100753.94;;;-0.17;95.27
69257;BME280;56376;53.356;-1.748;2023-04-04T05:37:59;100747.81;;;-0.20;95.38
69257;BME280;56376;53.356;-1.748;2023-04-04T05:40:25;100746.97;;;-0.21;96.00
69257;BME280;56376;53.356;-1.748;2023-04-04T05:42:54;100752.94;;;-0.20;96.15
69257;BME280;56376;53.356;-1.748;2023-04-04T05:45:20;100750.38;;;-0.20;96.53
69257;BME280;56376;53.356;-1.748;2023-04-04T05:47:45;100753.75;;;-0.23;96.12
69257;BME280;56376;53.356;-1.748;2023-04-04T05:50:11;100739.97;;;-0.27;96.13
69257;BME280;56376;53.356;-1.748;2023-04-04T05:52:36;100745.94;;;-0.28;96.33
69257;BME280;56376;53.356;-1.748;2023-04-04T05:55:01;100749.38;;;-0.27;96.30
69257;BME280;56376;53.356;-1.748;2023-04-04T05:57:27;100747.59;;;-0.30;96.06
69257;BME280;56376;53.356;-1.748;2023-04-04T05:59:53;100740.69;;;-0.31;96.04
69257;BME280;56376;53.356;-1.748;2023-04-04T06:02:18;100745.69;;;-0.35;95.83
69257;BME280;56376;53.356;-1.748;2023-04-04T06:04:44;100741.47;;;-0.35;95.85
69257;BME280;56376;53.356;-1.748;2023-04-04T06:07:09;100750.81;;;-0.37;96.38
69257;BME280;56376;53.356;-1.748;2023-04-04T06:09:35;100730.28;;;-0.37;96.57
69257;BME280;56376;53.356;-1.748;2023-04-04T06:12:01;100738.91;;;-0.35;96.95
69257;BME280;56376;53.356;-1.748;2023-04-04T06:14:28;100736.31;;;-0.35;97.62
69257;BME280;56376;53.356;-1.748;2023-04-04T06:16:54;100729.53;;;-0.33;97.82
69257;BME280;56376;53.356;-1.748;2023-04-04T06:19:19;100740.69;;;-0.31;97.90
69257;BME280;56376;53.356;-1.748;2023-04-04T06:21:45;100729.53;;;-0.33;97.89
69257;BME280;56376;53.356;-1.748;2023-04-04T06:24:10;100732.13;;;-0.31;98.86
69257;BME280;56376;53.356;-1.748;2023-04-04T06:26:36;100735.81;;;-0.22;99.51
69257;BME280;56376;53.356;-1.748;2023-04-04T06:29:01;100739.44;;;-0.15;99.38
69257;BME280;56376;53.356;-1.748;2023-04-04T06:31:27;100737.75;;;-0.13;99.61
69257;BME280;56376;53.356;-1.748;2023-04-04T06:33:53;100730.22;;;-0.07;99.68
69257;BME280;56376;53.356;-1.748;2023-04-04T06:36:18;100739.72;;;-0.03;99.46
69257;BME280;56376;53.356;-1.748;2023-04-04T06:38:43;100739.84;;;0.02;99.54
69257;BME280;56376;53.356;-1.748;2023-04-04T06:41:09;100748.59;;;0.09;100.00
69257;BME280;56376;53.356;-1.748;2023-04-04T06:43:34;100741.00;;;0.13;100.00
69257;BME280;56376;53.356;-1.748;2023-04-04T06:46:00;100749.81;;;0.23;100.00
69257;BME280;56376;53.356;-1.748;2023-04-04T06:48:25;100747.44;;;0.31;100.00
69257;BME280;56376;53.356;-1.748;2023-04-04T06:50:51;100751.13;;;0.40;100.00
69257;BME280;56376;53.356;-1.748;2023-04-04T06:53:16;100745.34;;;0.51;100.00
69257;BME280;56376;53.356;-1.748;2023-04-04T06:55:42;100743.84;;;0.59;100.00
69257;BME280;56376;53.356;-1.748;2023-04-04T06:58:07;100741.50;;;0.70;100.00
69257;BME280;56376;53.356;-1.748;2023-04-04T07:00:33;100739.16;;;0.79;100.00
69257;BME280;56376;53.356;-1.748;2023-04-04T07:02:59;100738.53;;;0.89;100.00
69257;BME280;56376;53.356;-1.748;2023-04-04T07:05:25;100735.28;;;0.98;100.00
69257;BME280;56376;53.356;-1.748;2023-04-04T07:07:51;100731.25;;;1.09;100.00
69257;BME280;56376;53.356;-1.748;2023-04-04T07:10:19;100738.31;;;1.21;100.00
69257;BME280;56376;53.356;-1.748;2023-04-04T07:12:45;100739.47;;;1.34;100.00
69257;BME280;56376;53.356;-1.748;2023-04-04T07:15:10;100746.56;;;1.45;100.00
69257;BME280;56376;53.356;-1.748;2023-04-04T07:17:36;100746.00;;;1.60;100.00
69257;BME280;56376;53.356;-1.748;2023-04-04T07:20:04;100739.38;;;1.73;100.00
69257;BME280;56376;53.356;-1.748;2023-04-04T07:22:29;100741.28;;;1.83;100.00
69257;BME280;56376;53.356;-1.748;2023-04-04T07:24:55;100747.66;;;2.02;99.84
69257;BME280;56376;53.356;-1.748;2023-04-04T07:27:31;100748.91;;;2.26;98.20
69257;BME280;56376;53.356;-1.748;2023-04-04T07:30:01;100742.38;;;2.46;97.12
69257;BME280;56376;53.356;-1.748;2023-04-04T07:32:26;100740.06;;;2.63;97.58
69257;BME280;56376;53.356;-1.748;2023-04-04T07:34:53;100742.03;;;2.81;96.25
69257;BME280;56376;53.356;-1.748;2023-04-04T07:37:19;100738.00;;;2.98;95.52
69257;BME280;56376;53.356;-1.748;2023-04-04T07:39:46;100732.22;;;3.16;94.73
69257;BME280;56376;53.356;-1.748;2023-04-04T07:42:14;100728.94;;;3.30;93.76
69257;BME280;56376;53.356;-1.748;2023-04-04T07:44:39;100725.66;;;3.43;93.29
69257;BME280;56376;53.356;-1.748;2023-04-04T07:47:05;100731.00;;;3.58;92.66
69257;BME280;56376;53.356;-1.748;2023-04-04T07:49:31;100718.22;;;3.71;91.34
69257;BME280;56376;53.356;-1.748;2023-04-04T07:51:56;100715.75;;;3.81;90.91
69257;BME280;56376;53.356;-1.748;2023-04-04T07:54:21;100716.72;;;3.91;90.89
69257;BME280;56376;53.356;-1.748;2023-04-04T07:56:49;100720.25;;;4.01;90.81
69257;BME280;56376;53.356;-1.748;2023-04-04T07:59:14;100722.09;;;4.14;89.79
69257;BME280;56376;53.356;-1.748;2023-04-04T08:01:40;100723.94;;;4.30;88.89
69257;BME280;56376;53.356;-1.748;2023-04-04T08:04:05;100706.84;;;4.46;88.30
69257;BME280;56376;53.356;-1.748;2023-04-04T08:06:30;100709.56;;;4.68;85.92
69257;BME280;56376;53.356;-1.748;2023-04-04T08:08:57;100711.41;;;4.87;86.74
69257;BME280;56376;53.356;-1.748;2023-04-04T08:11:23;100706.31;;;5.03;86.26
69257;BME280;56376;53.356;-1.748;2023-04-04T08:13:48;100710.72;;;5.20;84.48
69257;BME280;56376;53.356;-1.748;2023-04-04T08:16:14;100697.81;;;5.36;84.05
69257;BME280;56376;53.356;-1.748;2023-04-04T08:18:39;100697.00;;;5.54;84.18
69257;BME280;56376;53.356;-1.748;2023-04-04T08:21:05;100706.56;;;5.73;84.44
69257;BME280;56376;53.356;-1.748;2023-04-04T08:23:30;100706.59;;;5.87;81.67
69257;BME280;56376;53.356;-1.748;2023-04-04T08:25:55;100707.53;;;5.98;81.32
69257;BME280;56376;53.356;-1.748;2023-04-04T08:28:25;100706.66;;;6.16;81.89
69257;BME280;56376;53.356;-1.748;2023-04-04T08:30:52;100700.63;;;6.31;79.57
69257;BME280;56376;53.356;-1.748;2023-04-04T08:33:18;100697.13;;;6.44;77.98
69257;BME280;56376;53.356;-1.748;2023-04-04T08:35:44;100714.44;;;6.62;78.72
69257;BME280;56376;53.356;-1.748;2023-04-04T08:38:09;100704.03;;;6.79;77.20
69257;BME280;56376;53.356;-1.748;2023-04-04T08:40:35;100701.38;;;6.90;77.01
69257;BME280;56376;53.356;-1.748;2023-04-04T08:43:03;100702.22;;;7.00;76.17
69257;BME280;56376;53.356;-1.748;2023-04-04T08:45:31;100701.34;;;7.11;75.51
69257;BME280;56376;53.356;-1.748;2023-04-04T08:47:58;100690.91;;;7.22;75.44
69257;BME280;56376;53.356;-1.748;2023-04-04T08:50:26;100691.72;;;7.35;76.10
69257;BME280;56376;53.356;-1.748;2023-04-04T08:52:53;100695.09;;;7.48;76.70
69257;BME280;56376;53.356;-1.748;2023-04-04T08:55:19;100682.91;;;7.62;76.49
69257;BME280;56376;53.356;-1.748;2023-04-04T08:57:45;100692.31;;;7.83;76.43
69257;BME280;56376;53.356;-1.748;2023-04-04T09:00:12;100683.50;;;8.01;77.40
69257;BME280;56376;53.356;-1.748;2023-04-04T09:05:10;100682.44;;;8.30;75.16
69257;BME280;56376;53.356;-1.748;2023-04-04T09:07:38;100673.66;;;8.43;73.80
69257;BME280;56376;53.356;-1.748;2023-04-04T09:10:07;100659.66;;;8.53;73.23
69257;BME280;56376;53.356;-1.748;2023-04-04T09:12:35;100663.88;;;8.70;71.67
69257;BME280;56376;53.356;-1.748;2023-04-04T09:15:01;100669.75;;;8.85;71.51
69257;BME280;56376;53.356;-1.748;2023-04-04T09:17:27;100673.09;;;8.98;70.91
69257;BME280;56376;53.356;-1.748;2023-04-04T09:19:53;100666.03;;;9.08;70.76
69257;BME280;56376;53.356;-1.748;2023-04-04T09:22:19;100664.22;;;9.12;69.65
69257;BME280;56376;53.356;-1.748;2023-04-04T09:24:45;100667.66;;;9.17;69.86
69257;BME280;56376;53.356;-1.748;2023-04-04T09:27:14;100659.72;;;9.24;69.26
69257;BME280;56376;53.356;-1.748;2023-04-04T09:29:40;100664.84;;;9.34;69.44
69257;BME280;56376;53.356;-1.748;2023-04-04T09:32:13;100656.91;;;9.41;68.84
69257;BME280;56376;53.356;-1.748;2023-04-04T09:34:39;100664.63;;;9.50;68.41
69257;BME280;56376;53.356;-1.748;2023-04-04T09:37:05;100648.81;;;9.61;67.36
69257;BME280;56376;53.356;-1.748;2023-04-04T09:39:32;100656.63;;;9.63;67.59
69257;BME280;56376;53.356;-1.748;2023-04-04T09:41:58;100656.47;;;9.73;68.12
69257;BME280;56376;53.356;-1.748;2023-04-04T09:44:25;100648.50;;;9.83;67.35
69257;BME280;56376;53.356;-1.748;2023-04-04T09:47:05;100649.97;;;9.97;67.38
69257;BME280;56376;53.356;-1.748;2023-04-04T09:49:31;100647.97;;;10.15;67.01
69257;BME280;56376;53.356;-1.748;2023-04-04T09:51:56;100651.25;;;10.29;66.08
69257;BME280;56376;53.356;-1.748;2023-04-04T09:54:22;100640.59;;;10.40;66.07
69257;BME280;56376;53.356;-1.748;2023-04-04T09:56:48;100637.56;;;10.63;65.33
69257;BME280;56376;53.356;-1.748;2023-04-04T09:59:15;100637.41;;;10.72;64.19
69257;BME280;56376;53.356;-1.748;2023-04-04T10:01:42;100634.53;;;10.86;64.51
69257;BME280;56376;53.356;-1.748;2023-04-04T10:04:09;100634.31;;;10.95;63.17
69257;BME280;56376;53.356;-1.748;2023-04-04T10:06:35;100634.22;;;11.01;63.69
69257;BME280;56376;53.356;-1.748;2023-04-04T10:09:01;100637.44;;;11.13;62.72
69257;BME280;56376;53.356;-1.748;2023-04-04T10:13:56;100627.50;;;11.30;62.16
69257;BME280;56376;53.356;-1.748;2023-04-04T10:16:23;100637.78;;;11.39;61.59
69257;BME280;56376;53.356;-1.748;2023-04-04T10:18:48;100643.69;;;11.46;60.62
69257;BME280;56376;53.356;-1.748;2023-04-04T10:21:16;100645.38;;;11.50;58.94
69257;BME280;56376;53.356;-1.748;2023-04-04T10:23:44;100647.06;;;11.51;58.86
69257;BME280;56376;53.356;-1.748;2023-04-04T10:26:10;100638.28;;;11.55;59.15
69257;BME280;56376;53.356;-1.748;2023-04-04T10:28:36;100648.75;;;11.55;57.96
69257;BME280;56376;53.356;-1.748;2023-04-04T10:31:14;100643.66;;;11.49;58.26
69257;BME280;56376;53.356;-1.748;2023-04-04T10:37:08;100639.06;;;11.18;58.64
69257;BME280;56376;53.356;-1.748;2023-04-04T10:39:48;100642.78;;;11.08;60.12
69257;BME280;56376;53.356;-1.748;2023-04-04T10:42:18;100637.63;;;11.03;60.21
69257;BME280;56376;53.356;-1.748;2023-04-04T10:44:44;100641.16;;;11.02;60.17
69257;BME280;56376;53.356;-1.748;2023-04-04T10:47:16;100635.09;;;11.00;59.95
69257;BME280;56376;53.356;-1.748;2023-04-04T10:49:44;100631.63;;;11.00;60.13
69257;BME280;56376;53.356;-1.748;2023-04-04T10:52:14;100622.84;;;11.04;58.78
69257;BME280;56376;53.356;-1.748;2023-04-04T10:54:41;100621.84;;;11.08;59.42
69257;BME280;56376;53.356;-1.748;2023-04-04T10:57:08;100626.13;;;11.14;57.91
69257;BME280;56376;53.356;-1.748;2023-04-04T10:59:54;100628.69;;;11.15;59.61
69257;BME280;56376;53.356;-1.748;2023-04-04T11:05:23;100629.44;;;11.22;56.99
69257;BME280;56376;53.356;-1.748;2023-04-04T11:07:56;100626.72;;;11.25;58.44
69257;BME280;56376;53.356;-1.748;2023-04-04T11:10:25;100613.50;;;11.33;59.81
69257;BME280;56376;53.356;-1.748;2023-04-04T11:12:52;100623.59;;;11.48;59.81
69257;BME280;56376;53.356;-1.748;2023-04-04T11:15:24;100612.88;;;11.59;59.88
69257;BME280;56376;53.356;-1.748;2023-04-04T11:18:00;100601.31;;;11.69;59.07
69257;BME280;56376;53.356;-1.748;2023-04-04T11:20:35;100611.47;;;11.83;58.23
69257;BME280;56376;53.356;-1.748;2023-04-04T11:23:13;100600.84;;;11.89;56.70
69257;BME280;56376;53.356;-1.748;2023-04-04T11:25:40;100585.78;;;11.99;57.57
69257;BME280;56376;53.356;-1.748;2023-04-04T11:36:47;100583.38;;;12.56;55.16
69257;BME280;56376;53.356;-1.748;2023-04-04T11:39:24;100576.75;;;12.74;53.29
69257;BME280;56376;53.356;-1.748;2023-04-04T11:41:55;100575.59;;;12.85;52.13
69257;BME280;56376;53.356;-1.748;2023-04-04T11:44:25;100573.53;;;12.96;52.49
69257;BME280;56376;53.356;-1.748;2023-04-04T11:47:17;100567.13;;;13.05;52.14
69257;BME280;56376;53.356;-1.748;2023-04-04T11:49:41;100556.41;;;13.12;50.13
69257;BME280;56376;53.356;-1.748;2023-04-04T11:52:09;100553.56;;;13.20;48.69
69257;BME280;56376;53.356;-1.748;2023-04-04T11:54:36;100556.91;;;13.25;49.70
69257;BME280;56376;53.356;-1.748;2023-04-04T11:57:02;100552.34;;;13.32;50.32
69257;BME280;56376;53.356;-1.748;2023-04-04T11:59:29;100550.41;;;13.38;50.31
69257;BME280;56376;53.356;-1.748;2023-04-04T12:01:55;100548.50;;;13.44;50.24
69257;BME280;56376;53.356;-1.748;2023-04-04T12:04:21;100541.22;;;13.52;49.14
69257;BME280;56376;53.356;-1.748;2023-04-04T12:06:53;100539.31;;;13.57;48.42
69257;BME280;56376;53.356;-1.748;2023-04-04T12:09:19;100541.84;;;13.60;49.11
69257;BME280;56376;53.356;-1.748;2023-04-04T12:11:46;100528.44;;;13.68;49.70
69257;BME280;56376;53.356;-1.748;2023-04-04T12:14:20;100526.59;;;13.71;48.88
69257;BME280;56376;53.356;-1.748;2023-04-04T12:16:50;100540.59;;;13.72;46.55
69257;BME280;56376;53.356;-1.748;2023-04-04T12:19:16;100534.38;;;13.74;46.69
69257;BME280;56376;53.356;-1.748;2023-04-04T12:21:45;100527.50;;;13.70;47.16
69257;BME280;56376;53.356;-1.748;2023-04-04T12:24:11;100524.88;;;13.70;47.29
69257;BME280;56376;53.356;-1.748;2023-04-04T12:26:38;100516.94;;;13.72;47.17
69257;BME280;56376;53.356;-1.748;2023-04-04T12:29:05;100522.09;;;13.75;47.98
69257;BME280;56376;53.356;-1.748;2023-04-04T12:31:32;100521.97;;;13.78;47.73
69257;BME280;56376;53.356;-1.748;2023-04-04T12:33:58;100520.16;;;13.80;48.51
69257;BME280;56376;53.356;-1.748;2023-04-04T12:36:25;100511.22;;;13.85;48.12
69257;BME280;56376;53.356;-1.748;2023-04-04T12:41:24;100500.38;;;13.96;47.34
69257;BME280;56376;53.356;-1.748;2023-04-04T12:43:49;100493.25;;;13.98;46.64
69257;BME280;56376;53.356;-1.748;2023-04-04T12:46:15;100492.94;;;14.07;47.47
69257;BME280;56376;53.356;-1.748;2023-04-04T12:48:41;100488.28;;;14.16;47.31
69257;BME280;56376;53.356;-1.748;2023-04-04T12:51:06;100489.72;;;14.24;46.79
69257;BME280;56376;53.356;-1.748;2023-04-04T12:53:33;100483.25;;;14.33;46.77
69257;BME280;56376;53.356;-1.748;2023-04-04T12:56:01;100493.50;;;14.41;46.98
69257;BME280;56376;53.356;-1.748;2023-04-04T12:58:29;100486.13;;;14.50;46.42
69257;BME280;56376;53.356;-1.748;2023-04-04T13:00:58;100481.41;;;14.60;45.95
69257;BME280;56376;53.356;-1.748;2023-04-04T13:03:26;100481.09;;;14.69;45.49
69257;BME280;56376;53.356;-1.748;2023-04-04T13:05:52;100482.56;;;14.77;45.16
69257;BME280;56376;53.356;-1.748;2023-04-04T13:08:18;100477.06;;;14.83;45.15